LTAY/DNZ METAR and TAF weather

Enter ICAO airport designator
Station Type Date Time Source
LTAY METAR 2018/12/10 08:50 UTC NOAA

LTAY 100850Z 19011KT 9999 SCT035 BKN100 10/05 Q1009


Station Type Date Time Source
LTAY Decoded METAR 2018/12/10 08:50 UTC NOAA

Cardak, Turkey (LTAY) 37-47N 029-42E
Dec 10, 2018 - 03:50 AM EST / 2018.12.10 0850 UTC
Wind: from the S (190 degrees) at 13 MPH (11 KT):0
Visibility: greater than 7 mile(s):0
Sky conditions: mostly cloudy
Temperature: 50 F (10 C)
Dew Point: 41 F (5 C)
Relative Humidity: 71%
Pressure (altimeter): 29.80 in. Hg (1009 hPa)
ob: LTAY 100850Z 19011KT 9999 SCT035 BKN100 10/05 Q1009
cycle: 9

Station Type Date Time Source
LTAY TAF UTC NOAA

Error!


Example: see airport list